Time;durP1;ratioP1;P1;durP2;ratioP2;P2;SDS_P1;SDS_P2;PMS_P1;PMS_P2;Temp;Humidity;BMP_temperature;BMP_pressure;BME280_temperature;BME280_humidity;BME280_pressure;Samples;Min_cycle;Max_cycle;Signal;HPM_P1;HPM_P2
2023/05/07 00:00:36;;;;;;;1999.90;999.90;;;15.30;99.90;;;;;;5054627;28;20053;-81
2023/05/07 00:03:01;;;;;;;1999.90;999.90;;;15.30;99.90;;;;;;5054514;28;20404;-73
2023/05/07 00:05:27;;;;;;;1999.90;999.90;;;15.30;99.90;;;;;;5055039;28;20029;-81
2023/05/07 00:07:52;;;;;;;1999.90;999.90;;;15.30;99.90;;;;;;5054834;28;20548;-74
2023/05/07 00:10:18;;;;;;;1999.90;999.90;;;15.30;99.90;;;;;;5054744;28;20040;-73
2023/05/07 00:12:44;;;;;;;1999.90;999.90;;;15.30;99.90;;;;;;5054646;28;20029;-81
2023/05/07 00:15:10;;;;;;;1999.90;999.90;;;15.30;99.90;;;;;;5042756;28;20052;-73
2023/05/07 00:17:36;;;;;;;1999.90;999.90;;;15.30;99.90;;;;;;5034880;28;20477;-81
2023/05/07 00:20:03;;;;;;;1999.90;999.90;;;15.20;99.90;;;;;;5034670;28;20053;-81
2023/05/07 00:22:30;;;;;;;1999.90;999.90;;;15.20;99.90;;;;;;5034637;28;20033;-81
2023/05/07 00:24:56;;;;;;;1999.90;999.90;;;15.20;99.90;;;;;;5034489;28;20026;-81
2023/05/07 00:27:22;;;;;;;1999.90;999.90;;;15.20;99.90;;;;;;5034594;28;20416;-73
2023/05/07 00:29:47;;;;;;;1999.90;999.90;;;15.20;99.90;;;;;;5034449;28;20021;-81
2023/05/07 00:32:13;;;;;;;1999.90;999.90;;;15.20;99.90;;;;;;5034954;28;20026;-73
2023/05/07 00:34:39;;;;;;;1999.90;999.90;;;15.30;99.90;;;;;;5033913;28;20021;-73
2023/05/07 00:37:07;;;;;;;1999.90;999.90;;;15.30;99.90;;;;;;5033455;28;20026;-73
2023/05/07 00:39:33;;;;;;;1999.90;999.90;;;15.40;99.90;;;;;;5016677;28;20480;-81
2023/05/07 00:41:58;;;;;;;1999.90;999.90;;;15.40;99.90;;;;;;5034260;28;20104;-81
2023/05/07 00:44:24;;;;;;;1999.90;999.90;;;15.40;99.90;;;;;;5038509;28;20052;-73
2023/05/07 00:46:50;;;;;;;1999.90;999.90;;;15.40;99.90;;;;;;5054345;28;20021;-73
2023/05/07 00:49:16;;;;;;;1999.90;999.90;;;15.50;99.90;;;;;;5052978;28;20028;-73
2023/05/07 00:51:42;;;;;;;1999.90;999.90;;;15.50;99.90;;;;;;5053940;28;20025;-73
2023/05/07 00:54:08;;;;;;;1999.90;999.90;;;15.50;99.90;;;;;;5053851;28;20045;-81
2023/05/07 00:56:34;;;;;;;1999.90;999.90;;;15.50;99.90;;;;;;5054288;28;20060;-81
2023/05/07 00:59:01;;;;;;;1999.90;999.90;;;15.50;99.90;;;;;;5054163;28;20118;-74
2023/05/07 01:01:27;;;;;;;1999.90;999.90;;;15.50;99.90;;;;;;5053932;28;20074;-73
2023/05/07 01:03:53;;;;;;;1999.90;999.90;;;15.50;99.90;;;;;;5053763;28;20029;-81
2023/05/07 01:06:21;;;;;;;1999.90;999.90;;;15.60;99.90;;;;;;5054082;28;20025;-81
2023/05/07 01:08:47;;;;;;;1999.90;999.90;;;15.60;99.90;;;;;;5053341;28;20025;-81
2023/05/07 01:11:13;;;;;;;1999.90;999.90;;;15.60;99.90;;;;;;5035838;28;20116;-81
2023/05/07 01:13:40;;;;;;;1999.90;999.90;;;15.60;99.90;;;;;;5053623;28;20043;-73
2023/05/07 01:16:06;;;;;;;1999.90;999.90;;;15.70;99.90;;;;;;5033843;28;20518;-74
2023/05/07 01:18:32;;;;;;;1999.90;999.90;;;15.70;99.90;;;;;;5032864;28;20024;-73
2023/05/07 01:20:59;;;;;;;1999.90;999.90;;;15.70;99.90;;;;;;5033618;28;20025;-81
2023/05/07 01:23:27;;;;;;;1999.90;999.90;;;15.70;99.90;;;;;;5033907;28;20029;-82
2023/05/07 01:25:53;;;;;;;1999.90;999.90;;;15.70;99.90;;;;;;5033429;28;20025;-81
2023/05/07 01:28:19;;;;;;;1999.90;999.90;;;15.70;99.90;;;;;;5033417;28;20044;-73
2023/05/07 01:30:49;;;;;;;1999.90;999.90;;;15.70;99.90;;;;;;5033360;28;20031;-74
2023/05/07 01:33:21;;;;;;;1999.90;999.90;;;15.60;99.90;;;;;;5033738;28;20107;-82
2023/05/07 01:35:51;;;;;;;1999.90;999.90;;;15.60;99.90;;;;;;5032979;28;20143;-81
2023/05/07 01:38:17;;;;;;;1999.90;999.90;;;15.60;99.90;;;;;;5033061;28;20021;-73
2023/05/07 01:40:43;;;;;;;1999.90;999.90;;;15.50;99.90;;;;;;5033052;28;20036;-73
2023/05/07 01:43:10;;;;;;;1999.90;999.90;;;15.50;99.90;;;;;;5032511;28;20022;-73
2023/05/07 01:45:36;;;;;;;1999.90;999.90;;;15.50;99.90;;;;;;5043737;28;20491;-81
2023/05/07 01:48:03;;;;;;;1999.90;999.90;;;15.60;99.90;;;;;;5052676;28;20058;-73
2023/05/07 01:50:29;;;;;;;1999.90;999.90;;;15.50;99.90;;;;;;5053062;28;20037;-81
2023/05/07 01:52:55;;;;;;;1999.90;999.90;;;15.50;99.90;;;;;;5052586;28;20049;-73
2023/05/07 01:55:21;;;;;;;1999.90;999.90;;;15.50;99.90;;;;;;5052840;28;20100;-81
2023/05/07 01:57:47;;;;;;;1999.90;999.90;;;15.50;99.90;;;;;;5053230;28;20454;-81
2023/05/07 02:00:12;;;;;;;1999.90;999.90;;;15.40;99.90;;;;;;5052955;28;20105;-81
2023/05/07 02:02:38;;;;;;;1999.90;999.90;;;15.40;99.90;;;;;;5034845;28;20119;-73
2023/05/07 02:05:04;;;;;;;1999.90;999.90;;;15.40;99.90;;;;;;5052745;28;20111;-73
2023/05/07 02:07:30;;;;;;;1999.90;999.90;;;15.40;99.90;;;;;;5052783;28;20021;-73
2023/05/07 02:09:56;;;;;;;1999.90;999.90;;;15.30;99.90;;;;;;5052592;28;20036;-81
2023/05/07 02:12:22;;;;;;;1999.90;999.90;;;15.30;99.90;;;;;;5052733;28;20400;-73
2023/05/07 02:14:48;;;;;;;1999.90;999.90;;;15.30;99.90;;;;;;5043744;28;20105;-81
2023/05/07 02:17:14;;;;;;;1999.90;999.90;;;15.20;99.90;;;;;;5032637;28;20109;-73
2023/05/07 02:19:39;;;;;;;1999.90;999.90;;;15.20;99.90;;;;;;5032839;28;20021;-73
2023/05/07 02:22:09;;;;;;;1999.90;999.90;;;15.20;99.90;;;;;;5032840;28;20032;-74
2023/05/07 02:24:35;;;;;;;1999.90;999.90;;;15.20;99.90;;;;;;5032755;28;20377;-81
2023/05/07 02:27:01;;;;;;;1999.90;999.90;;;15.20;99.90;;;;;;5032715;28;20036;-81
2023/05/07 02:29:26;;;;;;;1999.90;999.90;;;15.20;99.90;;;;;;5032468;28;20496;-81
2023/05/07 02:31:52;;;;;;;1999.90;999.90;;;15.20;99.90;;;;;;5032622;28;20021;-81
2023/05/07 02:34:19;;;;;;;1999.90;999.90;;;15.20;99.90;;;;;;5032860;28;20079;-74
2023/05/07 02:36:45;;;;;;;1999.90;999.90;;;15.20;99.90;;;;;;5031878;28;20104;-73
2023/05/07 02:39:15;;;;;;;1999.90;999.90;;;15.20;99.90;;;;;;5032552;28;20021;-81
2023/05/07 02:41:41;;;;;;;1999.90;999.90;;;15.20;99.90;;;;;;5020912;28;20400;-81
2023/05/07 02:44:06;;;;;;;1999.90;999.90;;;15.20;99.90;;;;;;5052377;28;20025;-73
2023/05/07 02:46:32;;;;;;;1999.90;999.90;;;15.20;99.90;;;;;;5052104;28;20047;-73
2023/05/07 02:48:57;;;;;;;1999.90;999.90;;;15.20;99.90;;;;;;5052004;28;20460;-81
2023/05/07 02:51:23;;;;;;;1999.90;999.90;;;15.20;99.90;;;;;;5052618;28;20539;-81
2023/05/07 02:53:49;;;;;;;1999.90;999.90;;;15.10;99.90;;;;;;5051943;28;20045;-81
2023/05/07 02:56:14;;;;;;;1999.90;999.90;;;15.20;99.90;;;;;;5053293;28;20021;-81
2023/05/07 02:58:41;;;;;;;1999.90;999.90;;;15.20;99.90;;;;;;5056459;28;20028;-74
2023/05/07 03:01:07;;;;;;;1999.90;999.90;;;15.10;99.90;;;;;;5056017;28;20432;-73
2023/05/07 03:03:33;;;;;;;1999.90;999.90;;;15.10;99.90;;;;;;5056457;28;20076;-81
2023/05/07 03:05:59;;;;;;;1999.90;999.90;;;15.10;99.90;;;;;;5055993;28;20024;-74
2023/05/07 03:08:25;;;;;;;1999.90;999.90;;;15.10;99.90;;;;;;5055754;28;20017;-74
2023/05/07 03:10:51;;;;;;;1999.90;999.90;;;15.10;99.90;;;;;;5055749;28;20033;-74
2023/05/07 03:13:17;;;;;;;1999.90;999.90;;;15.10;99.90;;;;;;5056042;28;20017;-73
2023/05/07 03:15:42;;;;;;;1999.90;999.90;;;15.10;99.90;;;;;;5039485;28;20534;-73
2023/05/07 03:18:08;;;;;;;1999.90;999.90;;;15.10;99.90;;;;;;5036446;28;20175;-75
2023/05/07 03:20:34;;;;;;;1999.90;999.90;;;15.10;99.90;;;;;;5035772;28;20030;-74
2023/05/07 03:23:00;;;;;;;1999.90;999.90;;;15.10;99.90;;;;;;5035749;28;20361;-74
2023/05/07 03:25:25;;;;;;;1999.90;999.90;;;15.20;99.90;;;;;;5035920;28;20032;-73
2023/05/07 03:27:51;;;;;;;1999.90;999.90;;;15.10;99.90;;;;;;5017983;28;20021;-81
2023/05/07 03:30:16;;;;;;;1999.90;999.90;;;15.10;99.90;;;;;;5035549;28;20029;-82
2023/05/07 03:32:42;;;;;;;1999.90;999.90;;;15.20;99.90;;;;;;5035630;28;20048;-81
2023/05/07 03:35:08;;;;;;;1999.90;999.90;;;15.20;99.90;;;;;;5035689;28;20053;-81
2023/05/07 03:37:33;;;;;;;1999.90;999.90;;;15.20;99.90;;;;;;5035232;28;20025;-74
2023/05/07 03:39:59;;;;;;;1999.90;999.90;;;15.20;99.90;;;;;;5035160;28;20044;-81
2023/05/07 03:42:25;;;;;;;1999.90;999.90;;;15.20;99.90;;;;;;5047743;28;20036;-74
2023/05/07 03:44:50;;;;;;;1999.90;999.90;;;15.20;99.90;;;;;;5055216;28;20399;-81
2023/05/07 03:47:16;;;;;;;1999.90;999.90;;;15.20;99.90;;;;;;5055689;28;20103;-81
2023/05/07 03:49:42;;;;;;;1999.90;999.90;;;15.20;99.90;;;;;;5054941;28;20028;-74
2023/05/07 03:52:07;;;;;;;1999.90;999.90;;;15.20;99.90;;;;;;5055298;28;20064;-81
2023/05/07 03:54:33;;;;;;;1999.90;999.90;;;15.20;99.90;;;;;;5055000;28;20396;-81
2023/05/07 03:56:58;;;;;;;1999.90;999.90;;;15.20;99.90;;;;;;5055013;28;20100;-81
2023/05/07 03:59:24;;;;;;;1999.90;999.90;;;15.30;99.90;;;;;;5055419;28;20057;-81
2023/05/07 04:01:50;;;;;;;1999.90;999.90;;;15.20;99.90;;;;;;5055108;28;20039;-74
2023/05/07 04:04:16;;;;;;;1999.90;999.90;;;15.20;99.90;;;;;;5055016;28;20480;-82
2023/05/07 04:06:41;;;;;;;1999.90;999.90;;;15.20;99.90;;;;;;5054605;28;20025;-81
2023/05/07 04:09:07;;;;;;;1999.90;999.90;;;15.20;99.90;;;;;;5053650;28;20404;-81
2023/05/07 04:11:33;;;;;;;1999.90;999.90;;;15.20;99.90;;;;;;5054916;28;20028;-81
2023/05/07 04:13:58;;;;;;;1999.90;999.90;;;15.20;99.90;;;;;;5036718;28;20029;-81
2023/05/07 04:16:24;;;;;;;1999.90;999.90;;;15.20;99.90;;;;;;5055016;28;20029;-74
2023/05/07 04:18:50;;;;;;;1999.90;999.90;;;15.30;99.90;;;;;;5035897;28;20071;-81
2023/05/07 04:21:20;;;;;;;1999.90;999.90;;;15.20;99.90;;;;;;5055005;28;20025;-81
2023/05/07 04:23:47;;;;;;;1999.90;999.90;;;15.30;99.90;;;;;;5054737;28;20033;-81
2023/05/07 04:26:13;;;;;;;1999.90;999.90;;;15.20;99.90;;;;;;5054608;28;20017;-81
2023/05/07 04:28:40;;;;;;;1999.90;999.90;;;15.30;99.90;;;;;;5054456;28;20036;-73
2023/05/07 04:31:05;;;;;;;1999.90;999.90;;;15.20;99.90;;;;;;5054498;28;20021;-73
2023/05/07 04:33:31;;;;;;;1999.90;999.90;;;15.10;99.90;;;;;;5036556;28;20373;-80
2023/05/07 04:36:02;;;;;;;1999.90;999.90;;;15.10;99.90;;;;;;5054676;28;20074;-81
2023/05/07 04:38:29;;;;;;;1999.90;999.90;;;15.10;99.90;;;;;;5053715;28;20021;-82
2023/05/07 04:40:55;;;;;;;1999.90;999.90;;;15.20;99.90;;;;;;5053556;28;20017;-77
2023/05/07 04:43:20;;;;;;;1999.90;999.90;;;15.20;99.90;;;;;;5034615;28;20044;-73
2023/05/07 04:45:46;;;;;;;1999.90;999.90;;;15.20;99.90;;;;;;5049548;28;20025;-73
2023/05/07 04:48:11;;;;;;;1999.90;999.90;;;15.20;99.90;;;;;;5054026;28;20519;-82
2023/05/07 04:50:37;;;;;;;1999.90;999.90;;;15.30;99.90;;;;;;5054366;28;20075;-73
2023/05/07 04:53:02;;;;;;;1999.90;999.90;;;15.30;99.90;;;;;;5053913;28;20420;-73
2023/05/07 04:55:28;;;;;;;1999.90;999.90;;;15.40;99.90;;;;;;5053873;28;20112;-82
2023/05/07 04:57:54;;;;;;;1999.90;999.90;;;15.50;99.90;;;;;;5053874;28;20033;-73
2023/05/07 05:00:19;;;;;;;1999.90;999.90;;;15.50;99.90;;;;;;5054148;28;20040;-81
2023/05/07 05:02:45;;;;;;;1999.90;999.90;;;15.50;99.90;;;;;;5054045;28;20021;-81
2023/05/07 05:05:11;;;;;;;1999.90;999.90;;;15.50;99.90;;;;;;5053855;28;20036;-81
2023/05/07 05:07:37;;;;;;;1999.90;999.90;;;15.50;99.90;;;;;;5053781;28;20415;-74
2023/05/07 05:10:04;;;;;;;1999.90;999.90;;;15.40;99.90;;;;;;5053378;28;20396;-73
2023/05/07 05:12:30;;;;;;;1999.90;999.90;;;15.40;99.90;;;;;;5053503;28;20473;-80
2023/05/07 05:14:56;;;;;;;1999.90;999.90;;;15.50;99.90;;;;;;5025713;28;20025;-80
2023/05/07 05:17:21;;;;;;;1999.90;999.90;;;15.40;99.90;;;;;;5033973;28;20029;-81
2023/05/07 05:19:47;;;;;;;1999.90;999.90;;;15.40;99.90;;;;;;5033530;28;20030;-73
2023/05/07 05:22:12;;;;;;;1999.90;999.90;;;15.50;99.90;;;;;;5033669;28;20029;-74
2023/05/07 05:24:38;;;;;;;1999.90;999.90;;;15.50;99.90;;;;;;5033277;28;20033;-81
2023/05/07 05:27:05;;;;;;;1999.90;999.90;;;15.50;99.90;;;;;;5033629;28;20079;-81
2023/05/07 05:29:31;;;;;;;1999.90;999.90;;;15.50;99.90;;;;;;5033538;28;20030;-74
2023/05/07 05:31:57;;;;;;;1999.90;999.90;;;15.60;99.90;;;;;;5033407;28;20044;-81
2023/05/07 05:34:22;;;;;;;1999.90;999.90;;;15.60;99.90;;;;;;5033337;28;20073;-74
2023/05/07 05:36:48;;;;;;;1999.90;999.90;;;15.60;99.90;;;;;;5033148;28;20380;-74
2023/05/07 05:39:14;;;;;;;1999.90;999.90;;;15.70;99.90;;;;;;5032604;28;20025;-74
2023/05/07 05:41:39;;;;;;;1999.90;999.90;;;15.70;99.90;;;;;;5039177;28;20028;-81
2023/05/07 05:44:05;;;;;;;1999.90;999.90;;;15.70;99.90;;;;;;5053077;28;20377;-73
2023/05/07 05:46:31;;;;;;;1999.90;999.90;;;15.70;99.90;;;;;;5053090;28;20033;-73
2023/05/07 05:48:56;;;;;;;1999.90;999.90;;;15.70;99.90;;;;;;5052563;28;20033;-74
2023/05/07 05:51:23;;;;;;;1999.90;999.90;;;15.80;99.90;;;;;;5053466;28;20024;-82
2023/05/07 05:53:48;;;;;;;1999.90;999.90;;;15.80;99.90;;;;;;5052754;28;20076;-82
2023/05/07 05:56:15;;;;;;;1999.90;999.90;;;15.80;99.90;;;;;;5053255;28;20056;-81
2023/05/07 05:58:41;;;;;;;1999.90;999.90;;;15.90;99.90;;;;;;5052895;28;20033;-73
2023/05/07 06:01:06;;;;;;;1999.90;999.90;;;15.90;99.90;;;;;;5052805;28;20079;-73
2023/05/07 06:03:32;;;;;;;1999.90;999.90;;;15.90;99.90;;;;;;5052926;28;20037;-81
2023/05/07 06:05:59;;;;;;;1999.90;999.90;;;15.90;99.90;;;;;;5052842;28;20028;-73
2023/05/07 06:08:25;;;;;;;1999.90;999.90;;;15.90;99.90;;;;;;5052623;28;20021;-74
2023/05/07 06:10:51;;;;;;;1999.90;999.90;;;15.90;99.90;;;;;;5052548;28;20035;-81
2023/05/07 06:13:16;;;;;;;1999.90;999.90;;;15.90;99.90;;;;;;5034553;28;20055;-73
2023/05/07 06:15:42;;;;;;;1999.90;999.90;;;15.90;99.90;;;;;;5052134;28;20036;-81
2023/05/07 06:18:07;;;;;;;1999.90;999.90;;;15.80;99.90;;;;;;5052659;28;20057;-73
2023/05/07 06:20:33;;;;;;;1999.90;999.90;;;15.80;99.90;;;;;;5052724;28;20024;-81
2023/05/07 06:22:59;;;;;;;1999.90;999.90;;;15.80;99.90;;;;;;5052710;28;20033;-81
2023/05/07 06:25:24;;;;;;;1999.90;999.90;;;15.80;99.90;;;;;;5052670;28;20021;-73
2023/05/07 06:27:50;;;;;;;1999.90;999.90;;;15.70;99.90;;;;;;5052630;28;20044;-73
2023/05/07 06:30:16;;;;;;;1999.90;999.90;;;15.80;99.90;;;;;;5052619;28;20436;-73
2023/05/07 06:32:41;;;;;;;1999.90;999.90;;;15.90;99.90;;;;;;5038078;28;20033;-81
2023/05/07 06:35:07;;;;;;;1999.90;999.90;;;15.90;99.90;;;;;;5056585;28;20064;-82
2023/05/07 06:37:33;;;;;;;1999.90;999.90;;;15.90;99.90;;;;;;5056729;28;20052;-73
2023/05/07 06:39:58;;;;;;;1999.90;999.90;;;15.90;99.90;;;;;;5056135;28;20028;-74
2023/05/07 06:42:24;;;;;;;1999.90;999.90;;;15.90;99.90;;;;;;5043488;28;20163;-81
2023/05/07 06:44:50;;;;;;;1999.90;999.90;;;15.90;99.90;;;;;;5044266;28;20021;-82
2023/05/07 06:47:15;;;;;;;1999.90;999.90;;;16.10;99.90;;;;;;5056762;28;20068;-82
2023/05/07 06:49:41;;;;;;;1999.90;999.90;;;16.10;99.90;;;;;;5056015;28;20423;-82
2023/05/07 06:52:06;;;;;;;1999.90;999.90;;;16.30;99.90;;;;;;5056486;28;20056;-73
2023/05/07 06:54:32;;;;;;;1999.90;999.90;;;16.60;99.90;;;;;;5056302;28;20035;-82
2023/05/07 06:56:58;;;;;;;1999.90;999.90;;;16.80;99.90;;;;;;5056107;28;20016;-82
2023/05/07 06:59:23;;;;;;;1999.90;999.90;;;16.90;99.90;;;;;;5056539;28;20415;-82
2023/05/07 07:01:49;;;;;;;1999.90;999.90;;;17.00;99.90;;;;;;5055596;28;20029;-82
2023/05/07 07:04:15;;;;;;;1999.90;999.90;;;17.00;99.90;;;;;;5056559;28;20021;-74
2023/05/07 07:06:40;;;;;;;1999.90;999.90;;;16.90;99.90;;;;;;5055933;28;20036;-83
2023/05/07 07:09:06;;;;;;;1999.90;999.90;;;16.70;99.90;;;;;;5055815;28;20040;-82
2023/05/07 07:11:31;;;;;;;1999.90;999.90;;;16.80;99.90;;;;;;5056091;28;20029;-82
2023/05/07 07:13:58;;;;;;;1999.90;999.90;;;16.90;99.90;;;;;;5055730;28;20018;-82
2023/05/07 07:16:24;;;;;;;1999.90;999.90;;;17.10;99.90;;;;;;5037980;28;20036;-74
2023/05/07 07:18:50;;;;;;;1999.90;999.90;;;17.10;99.90;;;;;;5054541;28;20025;-82
2023/05/07 07:21:16;;;;;;;1999.90;999.90;;;17.00;99.90;;;;;;5055956;28;20033;-82
2023/05/07 07:23:42;;;;;;;1999.90;999.90;;;17.10;99.90;;;;;;5056181;28;20025;-74
2023/05/07 07:26:07;;;;;;;1999.90;999.90;;;17.20;99.90;;;;;;5055624;28;20100;-82
2023/05/07 07:28:33;;;;;;;1999.90;999.90;;;17.40;99.90;;;;;;5055550;28;20021;-74
2023/05/07 07:30:58;;;;;;;1999.90;999.90;;;17.60;99.90;;;;;;5055528;28;20036;-74
2023/05/07 07:33:24;;;;;;;1999.90;999.90;;;17.30;99.90;;;;;;5056010;28;20434;-75
2023/05/07 07:35:50;;;;;;;1999.90;999.90;;;17.30;99.90;;;;;;5055562;28;20029;-75
2023/05/07 07:38:15;;;;;;;1999.90;999.90;;;17.10;99.90;;;;;;5055492;28;20022;-74
2023/05/07 07:40:41;;;;;;;1999.90;999.90;;;17.10;99.90;;;;;;5054943;28;20036;-81
2023/05/07 07:43:07;;;;;;;1999.90;999.90;;;17.10;99.90;;;;;;5053070;28;20480;-74
2023/05/07 07:45:32;;;;;;;1999.90;999.90;;;17.10;99.90;;;;;;5055440;28;20025;-74
2023/05/07 07:47:58;;;;;;;1999.90;999.90;;;17.50;99.90;;;;;;5063190;28;20165;-81
2023/05/07 07:50:23;;;;;;;1999.90;999.90;;;19.10;99.90;;;;;;5055294;28;20029;-81
2023/05/07 07:52:49;;;;;;;1999.90;999.90;;;19.00;99.90;;;;;;5054994;28;20045;-81
2023/05/07 07:55:20;;;;;;;1999.90;999.90;;;18.40;99.90;;;;;;5055203;28;20060;-74
2023/05/07 07:57:46;;;;;;;1999.90;999.90;;;18.10;99.90;;;;;;5055269;28;20067;-81
2023/05/07 08:00:12;;;;;;;1999.90;999.90;;;18.00;99.90;;;;;;5055310;28;20029;-74
2023/05/07 08:02:38;;;;;;;1999.90;999.90;;;18.30;99.90;;;;;;5055172;28;20350;-81
2023/05/07 08:05:04;;;;;;;1999.90;999.90;;;18.90;99.90;;;;;;5054981;28;20029;-81
2023/05/07 08:07:29;;;;;;;1999.90;999.90;;;18.70;99.90;;;;;;5036995;28;20025;-81
2023/05/07 08:09:55;;;;;;;1999.90;999.90;;;18.80;99.90;;;;;;5055065;28;20029;-74
2023/05/07 08:12:21;;;;;;;1999.90;999.90;;;18.60;99.90;;;;;;5054857;28;20024;-74
2023/05/07 08:14:46;;;;;;;1999.90;999.90;;;18.50;99.90;;;;;;5046015;28;20028;-81
2023/05/07 08:17:12;;;;;;;1999.90;999.90;;;19.30;99.90;;;;;;5034891;28;20028;-83
2023/05/07 08:19:38;;;;;;;1999.90;999.90;;;21.80;99.90;;;;;;5017037;28;20448;-81
2023/05/07 08:22:05;;;;;;;1999.90;999.90;;;20.90;99.90;;;;;;5017098;28;20071;-74
2023/05/07 08:24:31;;;;;;;1999.90;999.90;;;22.40;99.90;;;;;;5016882;28;20060;-74
2023/05/07 08:26:56;;;;;;;1999.90;999.90;;;23.10;99.90;;;;;;5034619;28;20068;-81
2023/05/07 08:29:22;;;;;;;1999.90;999.90;;;21.00;99.90;;;;;;5034722;28;20025;-81
2023/05/07 08:31:47;;;;;;;1999.90;999.90;;;19.90;99.90;;;;;;5034562;28;20021;-80
2023/05/07 08:34:13;;;;;;;1999.90;999.90;;;19.10;99.90;;;;;;5016904;28;20390;-76
2023/05/07 08:36:41;;;;;;;1999.90;999.90;;;18.50;99.90;;;;;;5034553;28;20500;-74
2023/05/07 08:39:07;;;;;;;1999.90;999.90;;;18.10;99.90;;;;;;5035027;28;20392;-74
2023/05/07 08:41:32;;;;;;;1999.90;999.90;;;17.60;99.90;;;;;;5048628;28;20040;-80
2023/05/07 08:44:02;;;;;;;1999.90;999.90;;;17.70;99.90;;;;;;5034138;28;20025;-80
2023/05/07 08:46:32;;;;;;;1999.90;999.90;;;17.60;99.90;;;;;;5054456;28;20021;-80
2023/05/07 08:48:58;;;;;;;1999.90;999.90;;;17.70;99.90;;;;;;5053949;28;20021;-74
2023/05/07 08:51:23;;;;;;;1999.90;999.90;;;20.20;99.90;;;;;;5036215;28;20021;-81
2023/05/07 08:53:50;;;;;;;1999.90;999.90;;;22.70;99.90;;;;;;5053330;28;20040;-75
2023/05/07 08:56:16;;;;;;;1999.90;999.90;;;21.60;99.90;;;;;;5054422;28;20051;-82
2023/05/07 08:58:43;;;;;;;1999.90;999.90;;;21.70;99.90;;;;;;5053905;28;20028;-82
2023/05/07 09:01:13;;;;;;;1999.90;999.90;;;22.20;99.90;;;;;;5053790;28;20484;-75
2023/05/07 09:03:39;;;;;;;1999.90;999.90;;;22.30;99.90;;;;;;5036001;28;20123;-75
2023/05/07 09:06:05;;;;;;;1999.90;999.90;;;23.80;99.90;;;;;;5053979;28;20025;-81
2023/05/07 09:08:33;;;;;;;1999.90;999.90;;;25.80;99.90;;;;;;5053808;28;20379;-81
2023/05/07 09:10:59;;;;;;;1999.90;999.90;;;23.60;99.90;;;;;;5054068;28;20021;-81
2023/05/07 09:13:26;;;;;;;1999.90;999.90;;;25.00;99.90;;;;;;5035756;28;20472;-75
2023/05/07 09:15:52;;;;;;;1999.90;999.90;;;26.20;99.90;;;;;;5035846;28;20030;-75
2023/05/07 09:18:17;;;;;;;1999.90;999.90;;;25.60;99.90;;;;;;5033642;28;20029;-80
2023/05/07 09:20:43;;;;;;;1999.90;999.90;;;23.50;99.90;;;;;;5033931;28;20029;-79
2023/05/07 09:23:09;;;;;;;1999.90;999.90;;;22.00;99.90;;;;;;5033606;28;20033;-80
2023/05/07 09:25:36;;;;;;;1999.90;999.90;;;22.00;99.90;;;;;;5033843;28;20025;-80
2023/05/07 09:28:03;;;;;;;1999.90;999.90;;;21.60;99.90;;;;;;5033489;28;20026;-74
2023/05/07 09:30:33;;;;;;;1999.90;999.90;;;21.70;99.90;;;;;;5033219;28;20171;-80
2023/05/07 09:33:00;;;;;;;1999.90;999.90;;;21.80;99.90;;;;;;5033757;28;20064;-80
2023/05/07 09:35:29;;;;;;;1999.90;999.90;;;23.20;99.90;;;;;;5033470;28;20416;-80
2023/05/07 09:37:56;;;;;;;1999.90;999.90;;;22.30;99.90;;;;;;5033240;28;20071;-75
2023/05/07 09:40:27;;;;;;;1999.90;999.90;;;22.80;99.90;;;;;;5033584;28;20037;-75
2023/05/07 09:42:53;;;;;;;1999.90;999.90;;;22.70;99.90;;;;;;5031961;28;20036;-81
2023/05/07 09:45:28;;;;;;;1999.90;999.90;;;22.00;99.90;;;;;;5023808;28;20029;-75
2023/05/07 09:47:58;;;;;;;1999.90;999.90;;;21.00;99.90;;;;;;5041930;28;20029;-82
2023/05/07 09:50:28;;;;;;;1999.90;999.90;;;20.90;99.90;;;;;;5053234;28;20028;-81
2023/05/07 09:52:57;;;;;;;1999.90;999.90;;;19.70;99.90;;;;;;5052924;28;20052;-74
2023/05/07 09:55:23;;;;;;;1999.90;999.90;;;18.80;99.90;;;;;;5052820;28;20017;-74
2023/05/07 09:57:53;;;;;;;1999.90;999.90;;;18.00;99.90;;;;;;5053102;28;20484;-75
2023/05/07 10:00:21;;;;;;;1999.90;999.90;;;17.90;99.90;;;;;;5053266;28;20449;-80
2023/05/07 10:02:51;;;;;;;1999.90;999.90;;;18.30;99.90;;;;;;5053010;28;20542;-81
2023/05/07 10:05:19;;;;;;;1999.90;999.90;;;17.90;99.90;;;;;;5052705;28;20017;-75
2023/05/07 10:07:46;;;;;;;1999.90;999.90;;;17.70;99.90;;;;;;5052312;28;20021;-74
2023/05/07 10:10:12;;;;;;;1999.90;999.90;;;18.10;99.90;;;;;;5052913;28;20029;-80
2023/05/07 10:12:38;;;;;;;1999.90;999.90;;;18.60;99.90;;;;;;5052804;28;20051;-74
2023/05/07 10:15:08;;;;;;;1999.90;999.90;;;18.00;99.90;;;;;;5052846;28;20480;-75
2023/05/07 10:17:38;;;;;;;1999.90;999.90;;;17.60;99.90;;;;;;5052968;28;20018;-80
2023/05/07 10:20:05;;;;;;;1999.90;999.90;;;17.70;99.90;;;;;;5051781;28;20021;-74
2023/05/07 10:22:45;;;;;;;1999.90;999.90;;;17.60;99.90;;;;;;5052871;28;20025;-74
2023/05/07 10:25:25;;;;;;;1999.90;999.90;;;17.30;99.90;;;;;;5052519;28;20075;-74
2023/05/07 10:27:53;;;;;;;1999.90;999.90;;;17.10;99.90;;;;;;5034659;28;20025;-81
2023/05/07 10:30:36;;;;;;;1999.90;999.90;;;17.00;99.90;;;;;;5052810;28;20034;-74
2023/05/07 10:33:06;;;;;;;1999.90;999.90;;;17.10;99.90;;;;;;5052284;28;20028;-79
2023/05/07 10:35:38;;;;;;;1999.90;999.90;;;17.10;99.90;;;;;;5052482;28;20022;-79
2023/05/07 10:38:04;;;;;;;1999.90;999.90;;;17.70;99.90;;;;;;5052556;28;20369;-81
2023/05/07 10:40:31;;;;;;;1999.90;999.90;;;17.80;99.90;;;;;;5052408;28;20025;-75
2023/05/07 10:43:03;;;;;;;1999.90;999.90;;;18.10;99.90;;;;;;5035135;28;20030;-80
2023/05/07 10:45:29;;;;;;;1999.90;999.90;;;19.90;99.90;;;;;;5044732;28;20108;-74
2023/05/07 10:48:14;;;;;;;1999.90;999.90;;;21.60;99.90;;;;;;5052333;28;20025;-75
2023/05/07 10:50:41;;;;;;;1999.90;999.90;;;22.30;99.90;;;;;;5052325;28;20522;-80
2023/05/07 10:53:19;;;;;;;1999.90;999.90;;;22.60;99.90;;;;;;5052349;28;20037;-82
2023/05/07 10:56:06;;;;;;;1999.90;999.90;;;23.40;99.90;;;;;;5052311;28;20017;-83
2023/05/07 10:58:33;;;;;;;1999.90;999.90;;;22.30;99.90;;;;;;5050871;28;20056;-75
2023/05/07 11:01:02;;;;;;;1999.90;999.90;;;22.10;99.90;;;;;;5052425;28;20021;-74
2023/05/07 11:03:28;;;;;;;1999.90;999.90;;;22.60;99.90;;;;;;5052690;28;20365;-84
2023/05/07 11:06:10;;;;;;;1999.90;999.90;;;22.20;99.90;;;;;;5052343;28;20094;-78
2023/05/07 11:08:52;;;;;;;1999.90;999.90;;;21.30;99.90;;;;;;5051932;28;20025;-83
2023/05/07 11:11:21;;;;;;;1999.90;999.90;;;20.70;99.90;;;;;;5052514;28;20442;-74
2023/05/07 11:13:49;;;;;;;1999.90;999.90;;;21.80;99.90;;;;;;5051528;28;20029;-74
2023/05/07 11:16:26;;;;;;;1999.90;999.90;;;21.90;99.90;;;;;;5032582;28;20021;-82
2023/05/07 11:18:54;;;;;;;1999.90;999.90;;;21.60;99.90;;;;;;5035251;28;20097;-81
2023/05/07 11:21:41;;;;;;;1999.90;999.90;;;20.40;99.90;;;;;;5035902;28;20095;-79
2023/05/07 11:24:09;;;;;;;1999.90;999.90;;;20.60;99.90;;;;;;5036022;28;20028;-74
2023/05/07 11:26:47;;;;;;;1999.90;999.90;;;21.10;99.90;;;;;;5036074;28;20029;-74
2023/05/07 11:29:21;;;;;;;1999.90;999.90;;;20.80;99.90;;;;;;5035905;28;20551;-81
2023/05/07 11:31:51;;;;;;;1999.90;999.90;;;21.00;99.90;;;;;;5035684;28;20468;-83
2023/05/07 11:34:24;;;;;;;1999.90;999.90;;;21.50;99.90;;;;;;5035654;28;20029;-81
2023/05/07 11:36:50;;;;;;;1999.90;999.90;;;21.40;99.90;;;;;;5035618;28;20530;-82
2023/05/07 11:39:35;;;;;;;1999.90;999.90;;;21.40;99.90;;;;;;5035758;28;20030;-75
2023/05/07 11:42:02;;;;;;;1999.90;999.90;;;20.50;99.90;;;;;;5035506;28;20030;-80
2023/05/07 11:44:45;;;;;;;1999.90;999.90;;;19.90;99.90;;;;;;5022588;28;20380;-81
2023/05/07 11:47:17;;;;;;;1999.90;999.90;;;19.70;99.90;;;;;;5055240;28;20033;-82
2023/05/07 11:49:42;;;;;;;1999.90;999.90;;;19.20;99.90;;;;;;5055186;28;20017;-73
2023/05/07 11:52:08;;;;;;;1999.90;999.90;;;19.60;99.90;;;;;;5055425;28;20412;-74
2023/05/07 11:54:37;;;;;;;1999.90;999.90;;;19.30;99.90;;;;;;5055211;28;20104;-79
2023/05/07 11:57:03;;;;;;;1999.90;999.90;;;19.40;99.90;;;;;;5055317;28;20025;-81